Terminal Aerodrome Forecast
Issued by NWS Melbourne, FL

Home | Current Version | Previous Version | Text Only | Print | Product List | Glossary On
Versions: 1 2 3 4 5 6 7 8 9 10 11 12 13 14 15 16 17 18 19 20 21 22 23 24 25 26 27 28 29 30 31 32 33
000
FTUS42 KMLB 281206 AAA
TAFMCO
TAF AMD
KMCO 281206Z 2812/2912 19008KT P6SM SCT015 BKN035 OVC200
      TEMPO 2812/2813 -SHRA SCT010 BKN020
     FM281300 20009KT P6SM VCSH BKN025 OVC200
     FM281600 20011KT P6SM VCTS SCT035CB BKN060
      TEMPO 2817/2819 4SM TSRA SCT020CB BKN030 BKN070
     FM282300 24006KT P6SM SCT025 SCT080 BKN250=

USA.gov is the U.S. government's official web portal to all federal, state and local government web resources and services.